sensor_id;sensor_type;location;lat;lon;timestamp;pressure;altitude;pressure_sealevel;temperature;humidity
8573;BME280;4324;42.012;24.872;2023-03-14T00:01:26;99378.06;;;5.07;65.57
8573;BME280;4324;42.012;24.872;2023-03-14T00:03:54;99380.69;;;4.96;66.08
8573;BME280;4324;42.012;24.872;2023-03-14T00:06:21;99379.78;;;4.86;66.26
8573;BME280;4324;42.012;24.872;2023-03-14T00:08:48;99360.47;;;4.65;66.29
8573;BME280;4324;42.012;24.872;2023-03-14T00:11:18;99374.16;;;4.79;66.65
8573;BME280;4324;42.012;24.872;2023-03-14T00:13:46;99356.06;;;4.65;66.75
8573;BME280;4324;42.012;24.872;2023-03-14T00:16:14;99380.84;;;4.83;66.62
8573;BME280;4324;42.012;24.872;2023-03-14T00:18:42;99375.84;;;4.80;65.92
8573;BME280;4324;42.012;24.872;2023-03-14T00:21:10;99367.38;;;4.77;65.60
8573;BME280;4324;42.012;24.872;2023-03-14T00:23:39;99365.22;;;4.71;66.17
8573;BME280;4324;42.012;24.872;2023-03-14T00:26:07;99369.53;;;4.60;66.04
8573;BME280;4324;42.012;24.872;2023-03-14T00:28:35;99362.84;;;4.45;66.28
8573;BME280;4324;42.012;24.872;2023-03-14T00:31:03;99359.88;;;4.39;66.58
8573;BME280;4324;42.012;24.872;2023-03-14T00:33:30;99338.63;;;4.19;67.70
8573;BME280;4324;42.012;24.872;2023-03-14T00:36:00;99355.53;;;4.26;67.33
8573;BME280;4324;42.012;24.872;2023-03-14T00:38:29;99337.44;;;4.12;67.21
8573;BME280;4324;42.012;24.872;2023-03-14T00:40:56;99346.38;;;4.21;67.40
8573;BME280;4324;42.012;24.872;2023-03-14T00:43:23;99340.53;;;4.28;67.67
8573;BME280;4324;42.012;24.872;2023-03-14T00:45:51;99329.09;;;4.29;67.90
8573;BME280;4324;42.012;24.872;2023-03-14T00:48:19;99320.63;;;4.26;67.56
8573;BME280;4324;42.012;24.872;2023-03-14T00:50:46;99312.16;;;4.22;67.96
8573;BME280;4324;42.012;24.872;2023-03-14T00:53:15;99315.50;;;4.24;68.44
8573;BME280;4324;42.012;24.872;2023-03-14T00:55:43;99323.38;;;4.24;68.69
8573;BME280;4324;42.012;24.872;2023-03-14T00:58:10;99312.16;;;4.22;68.36
8573;BME280;4324;42.012;24.872;2023-03-14T01:00:38;99311.34;;;4.22;68.51
8573;BME280;4324;42.012;24.872;2023-03-14T01:03:05;99301.81;;;4.21;68.78
8573;BME280;4324;42.012;24.872;2023-03-14T01:05:32;99292.88;;;4.23;68.96
8573;BME280;4324;42.012;24.872;2023-03-14T01:07:59;99296.19;;;4.25;69.58
8573;BME280;4324;42.012;24.872;2023-03-14T01:10:27;99295.50;;;4.23;69.70
8573;BME280;4324;42.012;24.872;2023-03-14T01:12:54;99291.47;;;4.19;69.86
8573;BME280;4324;42.012;24.872;2023-03-14T01:15:21;99289.06;;;4.05;69.12
8573;BME280;4324;42.012;24.872;2023-03-14T01:17:48;99288.31;;;4.03;69.50
8573;BME280;4324;42.012;24.872;2023-03-14T01:20:15;99289.06;;;4.05;69.84
8573;BME280;4324;42.012;24.872;2023-03-14T01:22:43;99288.94;;;4.06;70.19
8573;BME280;4324;42.012;24.872;2023-03-14T01:25:12;99282.72;;;4.07;70.53
8573;BME280;4324;42.012;24.872;2023-03-14T01:27:41;99287.25;;;4.05;70.77
8573;BME280;4324;42.012;24.872;2023-03-14T01:30:10;99275.22;;;4.03;70.70
8573;BME280;4324;42.012;24.872;2023-03-14T01:32:38;99268.09;;;4.05;71.04
8573;BME280;4324;42.012;24.872;2023-03-14T01:35:05;99278.69;;;4.15;70.74
8573;BME280;4324;42.012;24.872;2023-03-14T01:37:32;99269.88;;;4.16;70.68
8573;BME280;4324;42.012;24.872;2023-03-14T01:39:59;99274.63;;;4.22;70.46
8573;BME280;4324;42.012;24.872;2023-03-14T01:42:26;99270.81;;;4.26;70.36
8573;BME280;4324;42.012;24.872;2023-03-14T01:44:56;99238.06;;;4.09;70.64
8573;BME280;4324;42.012;24.872;2023-03-14T01:47:24;99263.09;;;4.24;70.85
8573;BME280;4324;42.012;24.872;2023-03-14T01:49:53;99269.03;;;4.26;71.37
8573;BME280;4324;42.012;24.872;2023-03-14T01:52:25;99273.56;;;4.24;71.35
8573;BME280;4324;42.012;24.872;2023-03-14T01:54:55;99266.91;;;4.20;71.69
8573;BME280;4324;42.012;24.872;2023-03-14T01:57:28;99259.75;;;4.22;71.04
8573;BME280;4324;42.012;24.872;2023-03-14T01:59:59;99262.72;;;4.18;71.36
8573;BME280;4324;42.012;24.872;2023-03-14T02:02:29;99251.88;;;4.11;71.47
8573;BME280;4324;42.012;24.872;2023-03-14T02:04:57;99260.84;;;4.20;71.55
8573;BME280;4324;42.012;24.872;2023-03-14T02:07:28;99254.75;;;4.19;72.12
8573;BME280;4324;42.012;24.872;2023-03-14T02:09:58;99255.00;;;4.16;72.04
8573;BME280;4324;42.012;24.872;2023-03-14T02:12:25;99265.25;;;4.19;71.80
8573;BME280;4324;42.012;24.872;2023-03-14T02:14:53;99253.44;;;4.13;71.87
8573;BME280;4324;42.012;24.872;2023-03-14T02:17:22;99267.59;;;4.22;71.92
8573;BME280;4324;42.012;24.872;2023-03-14T02:20:07;99269.16;;;4.25;71.47
8573;BME280;4324;42.012;24.872;2023-03-14T02:22:37;99257.63;;;4.27;71.73
8573;BME280;4324;42.012;24.872;2023-03-14T02:25:08;99253.78;;;4.31;71.83
8573;BME280;4324;42.012;24.872;2023-03-14T02:27:37;99246.91;;;4.30;71.68
8573;BME280;4324;42.012;24.872;2023-03-14T02:30:06;99249.00;;;4.36;71.35
8573;BME280;4324;42.012;24.872;2023-03-14T02:32:37;99244.59;;;4.37;71.65
8573;BME280;4324;42.012;24.872;2023-03-14T02:35:09;99251.41;;;4.40;72.14
8573;BME280;4324;42.012;24.872;2023-03-14T02:37:39;99240.78;;;4.41;72.11
8573;BME280;4324;42.012;24.872;2023-03-14T02:40:10;99240.09;;;4.39;71.65
8573;BME280;4324;42.012;24.872;2023-03-14T02:42:38;99240.31;;;4.36;72.12
8573;BME280;4324;42.012;24.872;2023-03-14T02:48:14;99249.00;;;4.36;72.15
8573;BME280;4324;42.012;24.872;2023-03-14T02:50:43;99239.28;;;4.27;72.39
8573;BME280;4324;42.012;24.872;2023-03-14T02:53:13;99248.44;;;4.22;72.09
8573;BME280;4324;42.012;24.872;2023-03-14T02:55:44;99253.31;;;4.15;71.83
8573;BME280;4324;42.012;24.872;2023-03-14T02:58:13;99257.38;;;4.08;71.48
8573;BME280;4324;42.012;24.872;2023-03-14T03:00:39;99254.16;;;4.04;71.02
8573;BME280;4324;42.012;24.872;2023-03-14T03:03:06;99263.56;;;4.07;71.53
8573;BME280;4324;42.012;24.872;2023-03-14T03:05:33;99259.41;;;4.04;71.68
8573;BME280;4324;42.012;24.872;2023-03-14T03:08:03;99251.63;;;3.92;72.04
8573;BME280;4324;42.012;24.872;2023-03-14T03:10:30;99267.13;;;3.95;72.28
8573;BME280;4324;42.012;24.872;2023-03-14T03:12:57;99263.53;;;3.96;72.26
8573;BME280;4324;42.012;24.872;2023-03-14T03:15:25;99274.75;;;3.98;72.57
8573;BME280;4324;42.012;24.872;2023-03-14T03:17:53;99276.06;;;4.03;72.71
8573;BME280;4324;42.012;24.872;2023-03-14T03:20:19;99268.09;;;4.05;72.61
8573;BME280;4324;42.012;24.872;2023-03-14T03:22:46;99264.16;;;4.10;72.71
8573;BME280;4324;42.012;24.872;2023-03-14T03:25:15;99258.81;;;4.12;72.53
8573;BME280;4324;42.012;24.872;2023-03-14T03:27:42;99273.56;;;4.24;72.36
8573;BME280;4324;42.012;24.872;2023-03-14T03:30:10;99271.66;;;4.26;72.70
8573;BME280;4324;42.012;24.872;2023-03-14T03:32:38;99276.91;;;4.26;72.84
8573;BME280;4324;42.012;24.872;2023-03-14T03:35:06;99197.69;;;3.78;73.24
8573;BME280;4324;42.012;24.872;2023-03-14T03:37:34;99256.41;;;4.09;73.54
8573;BME280;4324;42.012;24.872;2023-03-14T03:40:01;99267.88;;;4.08;73.39
8573;BME280;4324;42.012;24.872;2023-03-14T03:42:30;99262.72;;;4.06;73.36
8573;BME280;4324;42.012;24.872;2023-03-14T03:44:57;99263.56;;;4.07;72.97
8573;BME280;4324;42.012;24.872;2023-03-14T03:47:24;99254.25;;;4.03;73.51
8573;BME280;4324;42.012;24.872;2023-03-14T03:49:52;99261.44;;;4.12;72.91
8573;BME280;4324;42.012;24.872;2023-03-14T03:52:19;99262.97;;;4.15;73.51
8573;BME280;4324;42.012;24.872;2023-03-14T03:54:46;99269.03;;;4.15;73.09
8573;BME280;4324;42.012;24.872;2023-03-14T03:57:12;99259.63;;;4.12;73.33
8573;BME280;4324;42.012;24.872;2023-03-14T03:59:39;99270.59;;;4.18;73.09
8573;BME280;4324;42.012;24.872;2023-03-14T04:02:06;99181.13;;;3.66;73.03
8573;BME280;4324;42.012;24.872;2023-03-14T04:04:34;99266.69;;;4.12;72.70
8573;BME280;4324;42.012;24.872;2023-03-14T04:07:02;99273.94;;;4.20;73.11
8573;BME280;4324;42.012;24.872;2023-03-14T04:09:29;99260.69;;;4.10;72.92
8573;BME280;4324;42.012;24.872;2023-03-14T04:11:56;99271.31;;;4.20;73.15
8573;BME280;4324;42.012;24.872;2023-03-14T04:14:23;99230.59;;;4.04;72.88
8573;BME280;4324;42.012;24.872;2023-03-14T04:16:50;99253.66;;;4.22;72.76
8573;BME280;4324;42.012;24.872;2023-03-14T04:19:16;99236.53;;;4.18;72.63
8573;BME280;4324;42.012;24.872;2023-03-14T04:21:43;99242.59;;;4.18;72.50
8573;BME280;4324;42.012;24.872;2023-03-14T04:24:13;99228.06;;;4.14;72.82
8573;BME280;4324;42.012;24.872;2023-03-14T04:26:40;99239.03;;;4.19;72.39
8573;BME280;4324;42.012;24.872;2023-03-14T04:29:07;99214.97;;;4.14;72.26
8573;BME280;4324;42.012;24.872;2023-03-14T04:31:34;99216.16;;;4.21;72.60
8573;BME280;4324;42.012;24.872;2023-03-14T04:34:01;99191.13;;;4.17;72.47
8573;BME280;4324;42.012;24.872;2023-03-14T04:36:28;99197.81;;;4.21;72.56
8573;BME280;4324;42.012;24.872;2023-03-14T04:38:55;99199.22;;;4.25;72.08
8573;BME280;4324;42.012;24.872;2023-03-14T04:41:23;99190.16;;;4.18;71.65
8573;BME280;4324;42.012;24.872;2023-03-14T04:43:50;99204.34;;;4.27;71.54
8573;BME280;4324;42.012;24.872;2023-03-14T04:46:17;99204.94;;;4.30;71.56
8573;BME280;4324;42.012;24.872;2023-03-14T04:48:44;99205.66;;;4.32;70.82
8573;BME280;4324;42.012;24.872;2023-03-14T04:51:11;99206.38;;;4.34;71.12
8573;BME280;4324;42.012;24.872;2023-03-14T04:53:37;99200.88;;;4.38;71.48
8573;BME280;4324;42.012;24.872;2023-03-14T04:56:05;99205.63;;;4.44;71.37
8573;BME280;4324;42.012;24.872;2023-03-14T04:58:34;99217.78;;;4.45;72.02
8573;BME280;4324;42.012;24.872;2023-03-14T05:01:04;99228.25;;;4.56;73.29
8573;BME280;4324;42.012;24.872;2023-03-14T05:03:31;99224.69;;;4.57;73.30
8573;BME280;4324;42.012;24.872;2023-03-14T05:05:58;99219.44;;;4.57;73.46
8573;BME280;4324;42.012;24.872;2023-03-14T05:08:26;99236.09;;;4.67;73.41
8573;BME280;4324;42.012;24.872;2023-03-14T05:10:53;99235.03;;;4.70;73.41
8573;BME280;4324;42.012;24.872;2023-03-14T05:13:20;99242.03;;;4.80;73.43
8573;BME280;4324;42.012;24.872;2023-03-14T05:19:00;99224.44;;;4.71;73.41
8573;BME280;4324;42.012;24.872;2023-03-14T05:21:27;99228.69;;;4.72;73.82
8573;BME280;4324;42.012;24.872;2023-03-14T05:23:54;99231.53;;;4.80;73.83
8573;BME280;4324;42.012;24.872;2023-03-14T05:26:21;99239.41;;;4.80;73.80
8573;BME280;4324;42.012;24.872;2023-03-14T05:28:48;99224.16;;;4.74;73.43
8573;BME280;4324;42.012;24.872;2023-03-14T05:31:15;99232.38;;;4.81;73.32
8573;BME280;4324;42.012;24.872;2023-03-14T05:33:42;99241.06;;;4.81;73.45
8573;BME280;4324;42.012;24.872;2023-03-14T05:36:10;99242.47;;;4.85;73.33
8573;BME280;4324;42.012;24.872;2023-03-14T05:38:37;99245.09;;;4.85;73.05
8573;BME280;4324;42.012;24.872;2023-03-14T05:41:04;99243.00;;;4.79;73.52
8573;BME280;4324;42.012;24.872;2023-03-14T05:43:32;99243.69;;;4.81;73.46
8573;BME280;4324;42.012;24.872;2023-03-14T05:45:58;99244.91;;;4.77;73.43
8573;BME280;4324;42.012;24.872;2023-03-14T05:48:25;99230.03;;;4.55;72.43
8573;BME280;4324;42.012;24.872;2023-03-14T05:50:54;99234.00;;;4.50;72.25
8573;BME280;4324;42.012;24.872;2023-03-14T05:53:23;99250.44;;;4.52;72.85
8573;BME280;4324;42.012;24.872;2023-03-14T05:55:51;99242.09;;;4.47;72.45
8573;BME280;4324;42.012;24.872;2023-03-14T05:58:19;99225.66;;;4.33;72.11
8573;BME280;4324;42.012;24.872;2023-03-14T06:00:45;99251.53;;;4.38;72.04
8573;BME280;4324;42.012;24.872;2023-03-14T06:03:13;99247.22;;;4.37;72.92
8573;BME280;4324;42.012;24.872;2023-03-14T06:05:40;99249.25;;;4.45;72.68
8573;BME280;4324;42.012;24.872;2023-03-14T06:08:12;99245.44;;;4.49;73.40
8573;BME280;4324;42.012;24.872;2023-03-14T06:11:05;99239.09;;;4.51;72.65
8573;BME280;4324;42.012;24.872;2023-03-14T06:13:35;99253.03;;;4.52;71.92
8573;BME280;4324;42.012;24.872;2023-03-14T06:16:03;99243.75;;;4.48;72.40
8573;BME280;4324;42.012;24.872;2023-03-14T06:18:31;99246.16;;;4.51;72.11
8573;BME280;4324;42.012;24.872;2023-03-14T06:20:58;99245.56;;;4.47;72.07
8573;BME280;4324;42.012;24.872;2023-03-14T06:23:26;99247.31;;;4.58;71.43
8573;BME280;4324;42.012;24.872;2023-03-14T06:25:57;99241.13;;;4.59;71.58
8573;BME280;4324;42.012;24.872;2023-03-14T06:28:24;99221.94;;;4.47;71.63
8573;BME280;4324;42.012;24.872;2023-03-14T06:30:51;99241.84;;;4.61;71.67
8573;BME280;4324;42.012;24.872;2023-03-14T06:33:18;99247.06;;;4.72;71.86
8573;BME280;4324;42.012;24.872;2023-03-14T06:35:46;99239.41;;;4.80;71.83
8573;BME280;4324;42.012;24.872;2023-03-14T06:38:13;99254.53;;;4.88;70.84
8573;BME280;4324;42.012;24.872;2023-03-14T06:40:44;99228.44;;;4.87;70.98
8573;BME280;4324;42.012;24.872;2023-03-14T06:43:19;99242.16;;;5.11;70.69
8573;BME280;4324;42.012;24.872;2023-03-14T06:45:47;99236.19;;;5.20;71.20
8573;BME280;4324;42.012;24.872;2023-03-14T06:48:13;99228.34;;;5.30;71.80
8573;BME280;4324;42.012;24.872;2023-03-14T06:50:41;99244.38;;;5.48;71.55
8573;BME280;4324;42.012;24.872;2023-03-14T06:53:13;99230.03;;;5.52;70.94
8573;BME280;4324;42.012;24.872;2023-03-14T06:55:40;99235.03;;;5.55;70.02
8573;BME280;4324;42.012;24.872;2023-03-14T06:58:08;99240.59;;;5.62;70.15
8573;BME280;4324;42.012;24.872;2023-03-14T07:00:37;99225.09;;;5.58;69.72
8573;BME280;4324;42.012;24.872;2023-03-14T07:03:04;99210.81;;;5.51;69.54
8573;BME280;4324;42.012;24.872;2023-03-14T07:05:31;99223.63;;;5.66;69.52
8573;BME280;4324;42.012;24.872;2023-03-14T07:07:58;99211.00;;;5.59;69.04
8573;BME280;4324;42.012;24.872;2023-03-14T07:10:25;99209.41;;;5.68;69.11
8573;BME280;4324;42.012;24.872;2023-03-14T07:12:52;99211.97;;;5.79;69.32
8573;BME280;4324;42.012;24.872;2023-03-14T07:15:19;99208.09;;;5.83;68.68
8573;BME280;4324;42.012;24.872;2023-03-14T07:17:47;99204.38;;;5.86;69.25
8573;BME280;4324;42.012;24.872;2023-03-14T07:20:14;99200.38;;;5.92;70.02
8573;BME280;4324;42.012;24.872;2023-03-14T07:22:41;99211.56;;;6.05;70.18
8573;BME280;4324;42.012;24.872;2023-03-14T07:25:09;99204.53;;;6.15;70.07
8573;BME280;4324;42.012;24.872;2023-03-14T07:27:37;99197.50;;;6.25;70.25
8573;BME280;4324;42.012;24.872;2023-03-14T07:30:05;99196.44;;;6.38;69.06
8573;BME280;4324;42.012;24.872;2023-03-14T07:32:32;99199.75;;;6.40;68.96
8573;BME280;4324;42.012;24.872;2023-03-14T07:35:01;99190.94;;;6.50;69.62
8573;BME280;4324;42.012;24.872;2023-03-14T07:37:27;99194.53;;;6.59;69.37
8573;BME280;4324;42.012;24.872;2023-03-14T07:39:55;99178.47;;;6.62;69.96
8573;BME280;4324;42.012;24.872;2023-03-14T07:42:21;99180.00;;;6.74;69.34
8573;BME280;4324;42.012;24.872;2023-03-14T07:44:49;99186.00;;;6.76;68.65
8573;BME280;4324;42.012;24.872;2023-03-14T07:47:15;99185.16;;;6.95;68.25
8573;BME280;4324;42.012;24.872;2023-03-14T07:49:45;99164.78;;;7.07;68.36
8573;BME280;4324;42.012;24.872;2023-03-14T07:52:14;99170.19;;;7.25;68.31
8573;BME280;4324;42.012;24.872;2023-03-14T07:54:40;99171.28;;;7.42;69.08
8573;BME280;4324;42.012;24.872;2023-03-14T07:57:07;99165.00;;;7.52;68.84
8573;BME280;4324;42.012;24.872;2023-03-14T07:59:36;99144.78;;;7.43;68.46
8573;BME280;4324;42.012;24.872;2023-03-14T08:02:03;99160.84;;;7.50;67.16
8573;BME280;4324;42.012;24.872;2023-03-14T08:04:31;99121.78;;;7.26;66.66
8573;BME280;4324;42.012;24.872;2023-03-14T08:06:58;99158.88;;;7.52;66.99
8573;BME280;4324;42.012;24.872;2023-03-14T08:09:26;99142.13;;;7.53;68.20
8573;BME280;4324;42.012;24.872;2023-03-14T08:11:57;99163.28;;;7.71;67.99
8573;BME280;4324;42.012;24.872;2023-03-14T08:14:24;99155.06;;;7.84;67.82
8573;BME280;4324;42.012;24.872;2023-03-14T08:16:51;99152.78;;;7.98;67.67
8573;BME280;4324;42.012;24.872;2023-03-14T08:19:19;99150.50;;;8.13;67.05
8573;BME280;4324;42.012;24.872;2023-03-14T08:21:46;99124.25;;;8.12;66.81
8573;BME280;4324;42.012;24.872;2023-03-14T08:24:13;99147.56;;;8.34;68.25
8573;BME280;4324;42.012;24.872;2023-03-14T08:26:41;99144.03;;;8.25;66.88
8573;BME280;4324;42.012;24.872;2023-03-14T08:29:08;99144.31;;;8.22;66.71
8573;BME280;4324;42.012;24.872;2023-03-14T08:31:35;99148.19;;;8.28;66.83
8573;BME280;4324;42.012;24.872;2023-03-14T08:34:02;99141.78;;;8.31;67.23
8573;BME280;4324;42.012;24.872;2023-03-14T08:36:29;99137.88;;;8.35;65.92
8573;BME280;4324;42.012;24.872;2023-03-14T08:38:56;99126.25;;;8.28;64.94
8573;BME280;4324;42.012;24.872;2023-03-14T08:41:23;99113.44;;;8.33;65.09
8573;BME280;4324;42.012;24.872;2023-03-14T08:43:52;99126.16;;;8.47;64.96
8573;BME280;4324;42.012;24.872;2023-03-14T08:46:22;99110.69;;;8.52;65.13
8573;BME280;4324;42.012;24.872;2023-03-14T08:48:49;99119.38;;;8.62;64.86
8573;BME280;4324;42.012;24.872;2023-03-14T08:51:16;99107.81;;;8.63;64.14
8573;BME280;4324;42.012;24.872;2023-03-14T08:53:43;99111.22;;;8.73;63.83
8573;BME280;4324;42.012;24.872;2023-03-14T08:56:10;99110.47;;;8.81;63.73
8573;BME280;4324;42.012;24.872;2023-03-14T08:58:37;99086.19;;;8.78;64.03
8573;BME280;4324;42.012;24.872;2023-03-14T09:01:08;99091.38;;;8.87;64.52
8573;BME280;4324;42.012;24.872;2023-03-14T09:03:35;99095.44;;;9.00;64.31
8573;BME280;4324;42.012;24.872;2023-03-14T09:06:03;99088.72;;;9.05;64.00
8573;BME280;4324;42.012;24.872;2023-03-14T09:08:30;99065.91;;;9.04;64.07
8573;BME280;4324;42.012;24.872;2023-03-14T09:10:57;99079.06;;;9.22;63.72
8573;BME280;4324;42.012;24.872;2023-03-14T09:13:24;99072.06;;;9.31;64.64
8573;BME280;4324;42.012;24.872;2023-03-14T09:15:51;99060.19;;;9.35;64.08
8573;BME280;4324;42.012;24.872;2023-03-14T09:18:20;99066.16;;;9.45;64.33
8573;BME280;4324;42.012;24.872;2023-03-14T09:20:50;99062.91;;;9.51;64.43
8573;BME280;4324;42.012;24.872;2023-03-14T09:23:17;99055.97;;;9.50;63.58
8573;BME280;4324;42.012;24.872;2023-03-14T09:25:44;99055.00;;;9.59;63.11
8573;BME280;4324;42.012;24.872;2023-03-14T09:28:11;99035.38;;;9.70;62.96
8573;BME280;4324;42.012;24.872;2023-03-14T09:30:41;99043.53;;;9.85;63.18
8573;BME280;4324;42.012;24.872;2023-03-14T09:33:08;99025.53;;;9.88;63.79
8573;BME280;4324;42.012;24.872;2023-03-14T09:35:36;98999.69;;;9.74;64.93
8573;BME280;4324;42.012;24.872;2023-03-14T09:38:04;99027.53;;;9.94;64.89
8573;BME280;4324;42.012;24.872;2023-03-14T09:40:33;99022.06;;;9.88;65.38
8573;BME280;4324;42.012;24.872;2023-03-14T09:43:02;98993.28;;;9.77;64.04
8573;BME280;4324;42.012;24.872;2023-03-14T09:45:33;99015.63;;;9.90;63.42
8573;BME280;4324;42.012;24.872;2023-03-14T09:48:04;99005.06;;;9.90;63.30
8573;BME280;4324;42.012;24.872;2023-03-14T09:50:39;98987.84;;;9.86;62.97
8573;BME280;4324;42.012;24.872;2023-03-14T09:53:10;98992.03;;;10.05;62.39
8573;BME280;4324;42.012;24.872;2023-03-14T09:55:39;98997.31;;;10.13;62.33
8573;BME280;4324;42.012;24.872;2023-03-14T09:58:10;98997.31;;;10.22;61.59
8573;BME280;4324;42.012;24.872;2023-03-14T10:00:38;98994.50;;;10.23;61.60
8573;BME280;4324;42.012;24.872;2023-03-14T10:03:21;98999.34;;;10.36;61.43
8573;BME280;4324;42.012;24.872;2023-03-14T10:05:53;98998.72;;;10.42;61.83
8573;BME280;4324;42.012;24.872;2023-03-14T10:08:21;98969.94;;;10.31;60.86
8573;BME280;4324;42.012;24.872;2023-03-14T10:10:48;98975.84;;;10.41;61.03
8573;BME280;4324;42.012;24.872;2023-03-14T10:13:18;98976.19;;;10.38;59.10
8573;BME280;4324;42.012;24.872;2023-03-14T10:15:50;98966.59;;;10.37;58.34
8573;BME280;4324;42.012;24.872;2023-03-14T10:18:19;98968.75;;;10.41;57.50
8573;BME280;4324;42.012;24.872;2023-03-14T10:20:52;98948.06;;;10.37;57.81
8573;BME280;4324;42.012;24.872;2023-03-14T10:23:39;98945.09;;;10.40;58.52
8573;BME280;4324;42.012;24.872;2023-03-14T10:26:35;98958.31;;;10.56;59.25
8573;BME280;4324;42.012;24.872;2023-03-14T10:29:31;98940.94;;;10.62;59.99
8573;BME280;4324;42.012;24.872;2023-03-14T10:32:19;98931.47;;;10.68;59.41
8573;BME280;4324;42.012;24.872;2023-03-14T10:35:04;98910.47;;;10.74;59.91
8573;BME280;4324;42.012;24.872;2023-03-14T10:37:48;98911.28;;;10.83;60.18
8573;BME280;4324;42.012;24.872;2023-03-14T10:40:19;98913.72;;;10.93;60.61
8573;BME280;4324;42.012;24.872;2023-03-14T10:42:48;98901.97;;;10.95;60.23
8573;BME280;4324;42.012;24.872;2023-03-14T10:45:31;98878.78;;;10.89;60.80
8573;BME280;4324;42.012;24.872;2023-03-14T10:48:20;98892.28;;;11.10;59.85
8573;BME280;4324;42.012;24.872;2023-03-14T10:50:55;98894.09;;;11.18;59.16
8573;BME280;4324;42.012;24.872;2023-03-14T10:53:24;98888.78;;;11.18;58.70
8573;BME280;4324;42.012;24.872;2023-03-14T10:55:52;98877.06;;;11.12;57.27
8573;BME280;4324;42.012;24.872;2023-03-14T10:58:22;98866.81;;;11.09;57.21
8573;BME280;4324;42.012;24.872;2023-03-14T11:00:54;98860.16;;;11.13;57.51
8573;BME280;4324;42.012;24.872;2023-03-14T11:03:26;98866.56;;;11.27;58.90
8573;BME280;4324;42.012;24.872;2023-03-14T11:05:59;98858.91;;;11.32;57.91
8573;BME280;4324;42.012;24.872;2023-03-14T11:08:36;98847.41;;;11.40;57.72
8573;BME280;4324;42.012;24.872;2023-03-14T11:11:14;98848.31;;;11.55;57.84
8573;BME280;4324;42.012;24.872;2023-03-14T11:13:53;98843.31;;;11.60;57.20
8573;BME280;4324;42.012;24.872;2023-03-14T11:16:31;98823.63;;;11.55;56.02
8573;BME280;4324;42.012;24.872;2023-03-14T11:19:14;98827.34;;;11.69;55.67
8573;BME280;4324;42.012;24.872;2023-03-14T11:22:25;98816.66;;;11.77;54.85
8573;BME280;4324;42.012;24.872;2023-03-14T11:25:12;98801.84;;;11.82;55.04
8573;BME280;4324;42.012;24.872;2023-03-14T11:27:43;98779.97;;;11.89;54.97
8573;BME280;4324;42.012;24.872;2023-03-14T11:30:18;98763.31;;;11.95;55.17
8573;BME280;4324;42.012;24.872;2023-03-14T11:32:50;98775.16;;;12.22;55.68
8573;BME280;4324;42.012;24.872;2023-03-14T11:35:25;98748.34;;;12.17;55.26
8573;BME280;4324;42.012;24.872;2023-03-14T11:37:54;98766.38;;;12.36;55.30
8573;BME280;4324;42.012;24.872;2023-03-14T11:40:26;98758.88;;;12.40;55.04
8573;BME280;4324;42.012;24.872;2023-03-14T11:42:59;98761.16;;;12.43;55.45
8573;BME280;4324;42.012;24.872;2023-03-14T11:45:30;98744.69;;;12.32;54.61
8573;BME280;4324;42.012;24.872;2023-03-14T11:48:11;98723.69;;;12.23;54.60
8573;BME280;4324;42.012;24.872;2023-03-14T11:50:42;98714.81;;;12.30;53.80
8573;BME280;4324;42.012;24.872;2023-03-14T11:53:14;98708.59;;;12.38;53.65
8573;BME280;4324;42.012;24.872;2023-03-14T11:55:45;98714.34;;;12.56;53.30
8573;BME280;4324;42.012;24.872;2023-03-14T11:58:15;98702.63;;;12.66;53.56
8573;BME280;4324;42.012;24.872;2023-03-14T12:00:48;98700.75;;;12.81;54.24
8573;BME280;4324;42.012;24.872;2023-03-14T12:03:25;98686.06;;;12.85;54.52
8573;BME280;4324;42.012;24.872;2023-03-14T12:06:02;98687.41;;;12.96;55.72
8573;BME280;4324;42.012;24.872;2023-03-14T12:08:42;98674.81;;;13.04;54.88
8573;BME280;4324;42.012;24.872;2023-03-14T12:11:20;98670.81;;;13.15;54.35
8573;BME280;4324;42.012;24.872;2023-03-14T12:13:52;98661.06;;;13.22;54.32
8573;BME280;4324;42.012;24.872;2023-03-14T12:16:36;98647.09;;;13.14;54.54
8573;BME280;4324;42.012;24.872;2023-03-14T12:19:28;98649.28;;;13.25;55.32
8573;BME280;4324;42.012;24.872;2023-03-14T12:25:15;98608.03;;;13.36;54.78
8573;BME280;4324;42.012;24.872;2023-03-14T12:28:30;98627.81;;;13.54;54.41
8573;BME280;4324;42.012;24.872;2023-03-14T12:34:28;98598.53;;;13.89;58.43
8573;BME280;4324;42.012;24.872;2023-03-14T12:37:19;98588.56;;;14.04;59.36
8573;BME280;4324;42.012;24.872;2023-03-14T12:40:06;98588.44;;;14.19;59.38
8573;BME280;4324;42.012;24.872;2023-03-14T12:42:55;98576.38;;;14.17;59.20
8573;BME280;4324;42.012;24.872;2023-03-14T12:45:28;98574.94;;;14.21;59.81
8573;BME280;4324;42.012;24.872;2023-03-14T12:48:07;98575.16;;;14.26;60.37
8573;BME280;4324;42.012;24.872;2023-03-14T12:50:40;98573.72;;;14.30;59.31
8573;BME280;4324;42.012;24.872;2023-03-14T12:56:26;98559.44;;;14.44;59.19
8573;BME280;4324;42.012;24.872;2023-03-14T12:59:17;98561.31;;;14.50;61.16
8573;BME280;4324;42.012;24.872;2023-03-14T13:01:54;98560.28;;;14.51;61.11
8573;BME280;4324;42.012;24.872;2023-03-14T13:04:28;98554.50;;;14.48;60.50
8573;BME280;4324;42.012;24.872;2023-03-14T13:07:10;98547.78;;;14.52;60.76
8573;BME280;4324;42.012;24.872;2023-03-14T13:12:56;98549.66;;;14.65;59.83
8573;BME280;4324;42.012;24.872;2023-03-14T13:15:27;98552.31;;;14.58;59.81
8573;BME280;4324;42.012;24.872;2023-03-14T13:18:01;98531.56;;;14.40;59.51
8573;BME280;4324;42.012;24.872;2023-03-14T13:20:31;98541.41;;;14.46;60.58
8573;BME280;4324;42.012;24.872;2023-03-14T13:22:59;98534.28;;;14.54;60.58
8573;BME280;4324;42.012;24.872;2023-03-14T13:25:29;98542.47;;;14.52;59.43
8573;BME280;4324;42.012;24.872;2023-03-14T13:28:03;98540.00;;;14.50;57.23
8573;BME280;4324;42.012;24.872;2023-03-14T13:30:40;98512.69;;;14.35;57.29
8573;BME280;4324;42.012;24.872;2023-03-14T13:33:14;98530.34;;;14.49;58.12
8573;BME280;4324;42.012;24.872;2023-03-14T13:35:43;98527.50;;;14.51;57.53
8573;BME280;4324;42.012;24.872;2023-03-14T13:38:20;98501.22;;;14.35;56.59
8573;BME280;4324;42.012;24.872;2023-03-14T13:40:49;98497.91;;;14.26;56.01
8573;BME280;4324;42.012;24.872;2023-03-14T13:43:23;98521.50;;;14.29;55.15
8573;BME280;4324;42.012;24.872;2023-03-14T13:45:54;98492.59;;;14.13;57.23
8573;BME280;4324;42.012;24.872;2023-03-14T13:48:27;98484.75;;;14.04;57.57
8573;BME280;4324;42.012;24.872;2023-03-14T13:50:58;98502.59;;;14.11;57.90
8573;BME280;4324;42.012;24.872;2023-03-14T13:53:26;98478.19;;;14.00;57.83
8573;BME280;4324;42.012;24.872;2023-03-14T13:55:53;98483.56;;;14.14;57.06